createdAt,value
2023-02-08T00:03:54.554Z,81.01
2023-02-08T00:08:57.471Z,81.78
2023-02-08T00:14:00.168Z,80.82
2023-02-08T00:19:15.740Z,80.40
2023-02-08T00:24:20.031Z,80.54
2023-02-08T00:29:21.965Z,80.32
2023-02-08T00:34:30.616Z,81.24
2023-02-08T00:39:32.892Z,81.32
2023-02-08T00:44:35.254Z,81.20
2023-02-08T00:49:37.996Z,82.32
2023-02-08T00:54:42.350Z,83.13
2023-02-08T00:59:44.519Z,83.05
2023-02-08T01:04:49.216Z,83.15
2023-02-08T01:09:51.573Z,83.81
2023-02-08T01:14:57.311Z,84.10
2023-02-08T01:20:00.243Z,83.67
2023-02-08T01:25:03.173Z,83.77
2023-02-08T01:30:13.938Z,83.85
2023-02-08T01:35:16.533Z,83.48
2023-02-08T01:40:22.228Z,83.82
2023-02-08T01:45:34.148Z,83.97
2023-02-08T01:51:10.999Z,83.90
2023-02-08T01:56:22.385Z,84.06
2023-02-08T02:01:26.240Z,83.02
2023-02-08T02:06:40.252Z,83.02
2023-02-08T02:11:45.025Z,83.37
2023-02-08T02:16:47.286Z,83.27
2023-02-08T02:22:14.176Z,84.46
2023-02-08T02:27:30.076Z,85.27
2023-02-08T02:33:00.247Z,85.29
2023-02-08T02:38:45.379Z,84.61
2023-02-08T02:43:58.660Z,84.62
2023-02-08T02:49:20.746Z,84.43
2023-02-08T02:54:27.484Z,85.03
2023-02-08T02:59:33.906Z,85.46
2023-02-08T03:04:38.807Z,85.66
2023-02-08T03:10:22.929Z,85.67
2023-02-08T03:16:03.925Z,85.08
2023-02-08T03:21:49.315Z,84.41
2023-02-08T03:27:47.694Z,84.07
2023-02-08T03:33:09.962Z,83.94
2023-02-08T03:38:35.971Z,83.32
2023-02-08T03:44:02.485Z,83.50
2023-02-08T03:49:15.742Z,82.81
2023-02-08T03:54:23.335Z,82.42
2023-02-08T04:00:02.581Z,81.97
2023-02-08T04:05:27.214Z,82.98
2023-02-08T04:10:29.475Z,81.56
2023-02-08T04:15:32.501Z,81.34
2023-02-08T04:20:34.349Z,82.31
2023-02-08T04:25:36.729Z,81.30
2023-02-08T04:30:39.194Z,80.79
2023-02-08T04:35:42.529Z,79.91
2023-02-08T04:40:45.405Z,81.95
2023-02-08T04:45:50.555Z,83.17
2023-02-08T04:50:59.201Z,83.51
2023-02-08T04:56:01.321Z,83.78
2023-02-08T05:01:10.855Z,82.91
2023-02-08T05:06:13.254Z,82.37
2023-02-08T05:11:23.784Z,81.75
2023-02-08T05:16:28.885Z,82.19
2023-02-08T05:21:33.469Z,82.36
2023-02-08T05:26:35.795Z,82.04
2023-02-08T05:31:37.967Z,82.09
2023-02-08T05:36:43.393Z,82.58
2023-02-08T05:41:45.412Z,81.91
2023-02-08T05:46:48.037Z,81.83
2023-02-08T05:51:50.360Z,81.43
2023-02-08T05:56:52.338Z,81.56
2023-02-08T06:01:54.286Z,81.42
2023-02-08T06:06:56.741Z,82.21
2023-02-08T06:12:02.067Z,82.07
2023-02-08T06:17:07.200Z,81.60
2023-02-08T06:22:09.613Z,81.12
2023-02-08T06:27:11.621Z,81.93
2023-02-08T06:32:21.363Z,82.60
2023-02-08T06:37:26.595Z,82.33
2023-02-08T06:42:28.988Z,81.61
2023-02-08T06:47:34.775Z,82.00
2023-02-08T06:52:37.480Z,81.82
2023-02-08T06:57:39.409Z,81.62
2023-02-08T07:02:41.821Z,80.37
2023-02-08T07:07:43.936Z,79.25
2023-02-08T07:12:53.681Z,79.77
2023-02-08T07:18:00.113Z,81.71
2023-02-08T07:23:02.363Z,80.34
2023-02-08T07:28:05.091Z,79.39
2023-02-08T07:33:10.914Z,79.24
2023-02-08T07:38:20.620Z,79.28
2023-02-08T07:43:23.235Z,78.97
2023-02-08T07:48:28.439Z,78.74
2023-02-08T07:53:31.281Z,79.16
2023-02-08T07:58:33.874Z,78.97
2023-02-08T08:03:36.356Z,79.07
2023-02-08T08:08:39.790Z,79.42
2023-02-08T08:13:42.324Z,78.69
2023-02-08T08:18:44.796Z,77.76
2023-02-08T08:23:50.971Z,76.33
2023-02-08T08:28:53.463Z,76.61
2023-02-08T08:33:55.970Z,75.87
2023-02-08T08:38:58.765Z,74.33
2023-02-08T08:44:01.908Z,73.09
2023-02-08T08:49:05.277Z,73.13
2023-02-08T08:54:08.558Z,72.06
2023-02-08T08:59:10.998Z,71.92
2023-02-08T09:04:13.672Z,71.49
2023-02-08T09:09:18.204Z,71.74
2023-02-08T09:14:20.746Z,71.90
2023-02-08T09:19:23.736Z,73.27
2023-02-08T09:24:26.238Z,74.10
2023-02-08T09:29:30.463Z,73.03
2023-02-08T09:34:33.315Z,71.06
2023-02-08T09:39:37.859Z,70.73
2023-02-08T09:45:57.880Z,70.41
2023-02-08T09:51:37.526Z,69.56
2023-02-08T09:56:42.187Z,70.69
2023-02-08T10:01:46.728Z,69.41
2023-02-08T10:06:50.138Z,70.53
2023-02-08T10:12:18.838Z,68.38
2023-02-08T10:18:04.930Z,70.17
2023-02-08T10:23:42.431Z,65.84
2023-02-08T10:29:58.149Z,70.66
2023-02-08T10:35:01.569Z,69.25
2023-02-08T10:40:21.072Z,67.50
2023-02-08T10:45:45.865Z,67.08
2023-02-08T10:50:48.234Z,67.78
2023-02-08T10:55:51.121Z,67.56
2023-02-08T11:00:54.283Z,66.34
2023-02-08T11:05:59.561Z,67.01
2023-02-08T11:11:08.965Z,67.44
2023-02-08T11:16:19.921Z,68.97
2023-02-08T11:21:34.683Z,66.74
2023-02-08T11:26:38.165Z,65.00
2023-02-08T11:32:02.326Z,64.59
2023-02-08T11:37:24.064Z,66.40
2023-02-08T11:42:37.450Z,66.10
2023-02-08T11:47:39.851Z,67.81
2023-02-08T11:52:46.156Z,65.14
2023-02-08T11:57:55.766Z,65.40
2023-02-08T12:03:13.872Z,64.85
2023-02-08T12:08:50.036Z,65.75
2023-02-08T12:14:22.659Z,65.04
2023-02-08T12:19:42.582Z,67.54
2023-02-08T12:25:32.197Z,67.84
2023-02-08T12:30:39.476Z,68.29
2023-02-08T12:36:04.103Z,70.90
2023-02-08T12:41:21.525Z,71.41
2023-02-08T12:46:32.551Z,68.34
2023-02-08T12:51:59.341Z,69.54
2023-02-08T12:57:03.542Z,68.64
2023-02-08T13:02:47.368Z,68.54
2023-02-08T13:07:58.511Z,68.58
2023-02-08T13:13:30.679Z,67.70
2023-02-08T13:18:40.000Z,67.56
2023-02-08T13:23:52.728Z,67.17
2023-02-08T13:28:59.434Z,69.10
2023-02-08T13:34:14.771Z,68.02
2023-02-08T13:39:49.231Z,68.28
2023-02-08T13:44:55.474Z,69.24
2023-02-08T13:50:00.852Z,70.58
2023-02-08T13:55:51.312Z,69.05
2023-02-08T14:00:53.908Z,69.76
2023-02-08T14:06:08.673Z,68.72
2023-02-08T14:11:40.735Z,68.34
2023-02-08T14:16:45.444Z,67.03
2023-02-08T14:21:50.533Z,66.27
2023-02-08T14:27:28.301Z,66.54
2023-02-08T14:32:35.758Z,68.15
2023-02-08T14:37:38.560Z,67.37
2023-02-08T14:43:07.856Z,67.38
2023-02-08T14:48:47.630Z,68.02
2023-02-08T14:54:07.004Z,70.70
2023-02-08T14:59:21.302Z,67.60
2023-02-08T15:04:24.127Z,67.68
2023-02-08T15:09:32.860Z,66.68
2023-02-08T15:14:37.501Z,67.35
2023-02-08T15:19:40.828Z,70.05
2023-02-08T15:25:25.810Z,69.62
2023-02-08T15:30:39.215Z,71.03
2023-02-08T15:35:43.212Z,70.06
2023-02-08T15:41:04.392Z,72.70
2023-02-08T15:46:19.093Z,73.63
2023-02-08T15:51:24.275Z,73.90
2023-02-08T15:56:38.404Z,76.29
2023-02-08T16:01:47.239Z,76.32
2023-02-08T16:06:56.218Z,74.96
2023-02-08T16:12:01.016Z,74.80
2023-02-08T16:17:04.374Z,78.63
2023-02-08T16:22:22.952Z,80.18
2023-02-08T16:27:29.874Z,80.95
2023-02-08T16:32:35.939Z,81.68
2023-02-08T16:37:38.692Z,81.94
2023-02-08T16:42:41.049Z,82.25
2023-02-08T16:47:49.978Z,82.41
2023-02-08T16:52:59.766Z,82.85
2023-02-08T16:58:02.230Z,83.10
2023-02-08T17:03:04.940Z,83.63
2023-02-08T17:08:12.136Z,83.95
2023-02-08T17:13:20.181Z,84.15
2023-02-08T17:18:23.171Z,84.34
2023-02-08T17:23:26.606Z,84.38
2023-02-08T17:28:29.379Z,84.51
2023-02-08T17:33:36.532Z,84.80
2023-02-08T17:38:40.366Z,84.93
2023-02-08T17:43:42.379Z,84.96
2023-02-08T17:48:46.686Z,84.53
2023-02-08T17:53:51.263Z,84.38
2023-02-08T17:58:55.766Z,84.76
2023-02-08T18:03:59.604Z,85.10
2023-02-08T18:09:02.870Z,85.02
2023-02-08T18:14:09.577Z,84.92
2023-02-08T18:19:12.354Z,84.81
2023-02-08T18:24:14.716Z,84.94
2023-02-08T18:29:18.529Z,85.06
2023-02-08T18:34:21.349Z,85.12
2023-02-08T18:39:24.196Z,85.14
2023-02-08T18:44:26.235Z,84.99
2023-02-08T18:49:28.236Z,84.88
2023-02-08T18:54:33.767Z,83.33
2023-02-08T18:59:35.974Z,83.11
2023-02-08T19:04:39.189Z,83.45
2023-02-08T19:09:44.648Z,83.73
2023-02-08T19:14:51.141Z,84.02
2023-02-08T19:19:54.072Z,84.17
2023-02-08T19:25:07.927Z,83.72
2023-02-08T19:30:10.593Z,82.51
2023-02-08T19:35:12.876Z,81.41
2023-02-08T19:40:15.748Z,81.59
2023-02-08T19:45:18.089Z,82.64
2023-02-08T19:50:20.065Z,83.65
2023-02-08T19:55:23.514Z,84.12
2023-02-08T20:00:25.969Z,84.36
2023-02-08T20:05:27.782Z,84.55
2023-02-08T20:10:29.842Z,84.71
2023-02-08T20:15:34.799Z,84.96
2023-02-08T20:20:37.737Z,85.28
2023-02-08T20:25:39.770Z,85.17
2023-02-08T20:30:42.038Z,84.06
2023-02-08T20:35:44.442Z,83.08
2023-02-08T20:40:46.553Z,82.79
2023-02-08T20:45:48.706Z,82.94
2023-02-08T20:50:51.170Z,83.04
2023-02-08T20:55:53.255Z,83.03
2023-02-08T21:00:55.237Z,83.35
2023-02-08T21:05:58.177Z,83.75
2023-02-08T21:11:02.318Z,83.45
2023-02-08T21:16:06.157Z,83.26
2023-02-08T21:21:09.482Z,84.38
2023-02-08T21:26:14.914Z,85.03
2023-02-08T21:31:19.983Z,85.57
2023-02-08T21:36:24.000Z,85.91
2023-02-08T21:41:29.380Z,86.13
2023-02-08T21:46:32.670Z,86.30
2023-02-08T21:51:53.930Z,86.41
2023-02-08T21:57:01.686Z,86.49
2023-02-08T22:02:07.181Z,86.60
2023-02-08T22:07:09.318Z,86.60
2023-02-08T22:12:18.777Z,86.63
2023-02-08T22:17:20.845Z,86.68
2023-02-08T22:22:22.694Z,86.76
2023-02-08T22:27:27.621Z,86.86
2023-02-08T22:32:32.273Z,86.96
2023-02-08T22:37:35.369Z,86.98
2023-02-08T22:42:39.112Z,86.49
2023-02-08T22:47:41.125Z,86.24
2023-02-08T22:52:43.033Z,85.93
2023-02-08T22:57:45.149Z,84.86
2023-02-08T23:02:47.193Z,84.23
2023-02-08T23:07:49.615Z,84.25
2023-02-08T23:12:51.552Z,84.21
2023-02-08T23:17:54.204Z,83.52
2023-02-08T23:22:56.658Z,83.93
2023-02-08T23:27:59.156Z,83.71
2023-02-08T23:33:01.042Z,83.30
2023-02-08T23:38:03.725Z,84.06
2023-02-08T23:43:06.645Z,84.48
2023-02-08T23:48:08.654Z,84.94
2023-02-08T23:53:10.718Z,85.00
2023-02-08T23:58:12.748Z,85.08
